Aérodrome :
LOGIN :

S'inscrire | Disclaimer

   EN    FR    IT 

 










Légende :    VFR   VFR Marginal   IFR   IFR Intensif   IFR Très Intensif
Visi : 
Plafond : 
>= 8 km
>= 3000ft
5 à 8 km
1000 à 3000 ft
1500m à 5 km
500 à 1000 ft
800 à 1500m
200 à 500 ft
< 800m
< 200 ft
Symboles :   Orages  Brouillard  Fortes neiges  Fortes précipitations  Vent > 20 kt
SIGMETs :   Divers  Orages  Givrage  Turbulence  Onde Orograph.  Cendres Volcan.







- Altitude de l'aérodrome : 1585 ft
- Code IATA : SIR


LSGS - Sion

DERNIER METAR :
  • 141450Z 25013KT 9999 BKN080 24/13 Q1015

METARs EXPIRÉS :
  • 141420Z 25013KT 9999 FEW050 BKN100 25/13 Q1015
  • 141350Z 25012KT 9999 FEW050 BKN100 24/14 Q1015
  • 141320Z 25010KT 9999 FEW050 BKN100 24/14 Q1015
  • 141250Z 25010KT 9999 FEW025 BKN100 25/14 Q1016
  • 141220Z 26008KT 230V290 9999 -RA SCT025 BKN100 23/15 Q1016

TAF TAF LSGS
Valide du 14 à 15h jusqu'au 15 à 00h UTC


141425Z 1415/1424 25012KT 9999 FEW050 SCT100
BECMG 1417/1419 VRB03KT
Pas de NOTAMs connus pour ce terrain.



MET'MAP, la Météo Aéronautique d'un coup d'oeil ! - Copyright ORBIFLY Décembre 2007 - Disclaimer

ORBIFLY MET'MAP TEAM :

Programmation & Développement : Alexandra Zaïnal
Conception & Développement : Baudouin d'Aumeries
Co-Programmation & Développement : Marc-Olivier Méhu
Soutien technique & logistique : Manuel Goepfert

Contact : metmap@orbifly.com




SOURCES & CREDITS :

   NOAA